sensor_id;sensor_type;location;lat;lon;timestamp;temperature;humidity
16315;DHT22;8266;52.150;4.768;2022-07-10T00:02:12;19.40;99.90
16315;DHT22;8266;52.150;4.768;2022-07-10T00:04:39;19.40;99.90
16315;DHT22;8266;52.150;4.768;2022-07-10T00:07:06;19.40;99.90
16315;DHT22;8266;52.150;4.768;2022-07-10T00:09:34;19.30;99.90
16315;DHT22;8266;52.150;4.768;2022-07-10T00:12:01;19.30;99.90
16315;DHT22;8266;52.150;4.768;2022-07-10T00:14:29;19.20;99.90
16315;DHT22;8266;52.150;4.768;2022-07-10T00:16:56;19.20;99.90
16315;DHT22;8266;52.150;4.768;2022-07-10T00:19:23;19.10;99.90
16315;DHT22;8266;52.150;4.768;2022-07-10T00:21:50;19.10;99.90
16315;DHT22;8266;52.150;4.768;2022-07-10T00:24:17;19.00;99.90
16315;DHT22;8266;52.150;4.768;2022-07-10T00:26:45;19.00;99.90
16315;DHT22;8266;52.150;4.768;2022-07-10T00:29:13;19.00;99.90
16315;DHT22;8266;52.150;4.768;2022-07-10T00:31:40;18.90;99.90
16315;DHT22;8266;52.150;4.768;2022-07-10T00:34:07;18.90;99.90
16315;DHT22;8266;52.150;4.768;2022-07-10T00:36:34;18.80;99.90
16315;DHT22;8266;52.150;4.768;2022-07-10T00:39:01;18.80;99.90
16315;DHT22;8266;52.150;4.768;2022-07-10T00:41:28;18.70;99.90
16315;DHT22;8266;52.150;4.768;2022-07-10T00:43:57;18.70;99.90
16315;DHT22;8266;52.150;4.768;2022-07-10T00:46:25;18.60;99.90
16315;DHT22;8266;52.150;4.768;2022-07-10T00:48:52;18.60;99.90
16315;DHT22;8266;52.150;4.768;2022-07-10T00:51:21;18.50;99.90
16315;DHT22;8266;52.150;4.768;2022-07-10T00:53:49;18.50;99.90
16315;DHT22;8266;52.150;4.768;2022-07-10T00:56:18;18.50;99.90
16315;DHT22;8266;52.150;4.768;2022-07-10T00:58:46;18.40;99.90
16315;DHT22;8266;52.150;4.768;2022-07-10T01:01:14;18.40;99.90
16315;DHT22;8266;52.150;4.768;2022-07-10T01:03:42;18.30;99.90
16315;DHT22;8266;52.150;4.768;2022-07-10T01:06:09;18.30;99.90
16315;DHT22;8266;52.150;4.768;2022-07-10T01:08:36;18.30;99.90
16315;DHT22;8266;52.150;4.768;2022-07-10T01:11:03;18.20;99.90
16315;DHT22;8266;52.150;4.768;2022-07-10T01:13:30;18.20;99.90
16315;DHT22;8266;52.150;4.768;2022-07-10T01:15:57;18.20;99.90
16315;DHT22;8266;52.150;4.768;2022-07-10T01:18:26;18.10;99.90
16315;DHT22;8266;52.150;4.768;2022-07-10T01:20:55;18.10;99.90
16315;DHT22;8266;52.150;4.768;2022-07-10T01:23:22;18.10;99.90
16315;DHT22;8266;52.150;4.768;2022-07-10T01:25:50;18.00;99.90
16315;DHT22;8266;52.150;4.768;2022-07-10T01:28:17;18.00;99.90
16315;DHT22;8266;52.150;4.768;2022-07-10T01:30:46;18.00;99.90
16315;DHT22;8266;52.150;4.768;2022-07-10T01:33:13;18.00;99.90
16315;DHT22;8266;52.150;4.768;2022-07-10T01:35:40;17.90;99.90
16315;DHT22;8266;52.150;4.768;2022-07-10T01:38:09;17.90;99.90
16315;DHT22;8266;52.150;4.768;2022-07-10T01:40:36;17.80;99.90
16315;DHT22;8266;52.150;4.768;2022-07-10T01:43:03;17.80;99.90
16315;DHT22;8266;52.150;4.768;2022-07-10T01:45:30;17.80;99.90
16315;DHT22;8266;52.150;4.768;2022-07-10T01:47:57;17.80;99.90
16315;DHT22;8266;52.150;4.768;2022-07-10T01:50:24;17.70;99.90
16315;DHT22;8266;52.150;4.768;2022-07-10T01:52:51;17.70;99.90
16315;DHT22;8266;52.150;4.768;2022-07-10T01:55:20;17.70;99.90
16315;DHT22;8266;52.150;4.768;2022-07-10T01:57:47;17.70;99.90
16315;DHT22;8266;52.150;4.768;2022-07-10T02:00:14;17.80;99.90
16315;DHT22;8266;52.150;4.768;2022-07-10T02:02:41;17.70;99.90
16315;DHT22;8266;52.150;4.768;2022-07-10T02:05:28;17.70;99.90
16315;DHT22;8266;52.150;4.768;2022-07-10T02:07:54;17.70;99.90
16315;DHT22;8266;52.150;4.768;2022-07-10T02:10:22;17.70;99.90
16315;DHT22;8266;52.150;4.768;2022-07-10T02:12:49;17.70;99.90
16315;DHT22;8266;52.150;4.768;2022-07-10T02:15:16;17.70;99.90
16315;DHT22;8266;52.150;4.768;2022-07-10T02:17:43;17.70;99.90
16315;DHT22;8266;52.150;4.768;2022-07-10T02:20:10;17.70;99.90
16315;DHT22;8266;52.150;4.768;2022-07-10T02:22:37;17.70;99.90
16315;DHT22;8266;52.150;4.768;2022-07-10T02:25:05;17.70;99.90
16315;DHT22;8266;52.150;4.768;2022-07-10T02:27:33;17.80;99.90
16315;DHT22;8266;52.150;4.768;2022-07-10T02:30:00;17.80;99.90
16315;DHT22;8266;52.150;4.768;2022-07-10T02:32:27;17.80;99.90
16315;DHT22;8266;52.150;4.768;2022-07-10T02:34:54;17.90;99.90
16315;DHT22;8266;52.150;4.768;2022-07-10T02:37:21;17.90;99.90
16315;DHT22;8266;52.150;4.768;2022-07-10T02:39:48;18.00;99.90
16315;DHT22;8266;52.150;4.768;2022-07-10T02:42:15;18.00;99.90
16315;DHT22;8266;52.150;4.768;2022-07-10T02:44:44;18.10;99.90
16315;DHT22;8266;52.150;4.768;2022-07-10T02:47:11;18.10;99.90
16315;DHT22;8266;52.150;4.768;2022-07-10T02:49:38;18.10;99.90
16315;DHT22;8266;52.150;4.768;2022-07-10T02:52:05;18.20;99.90
16315;DHT22;8266;52.150;4.768;2022-07-10T02:54:32;18.20;99.90
16315;DHT22;8266;52.150;4.768;2022-07-10T02:56:59;18.30;99.90
16315;DHT22;8266;52.150;4.768;2022-07-10T02:59:26;18.20;99.90
16315;DHT22;8266;52.150;4.768;2022-07-10T03:01:54;18.30;99.90
16315;DHT22;8266;52.150;4.768;2022-07-10T03:04:21;18.30;99.90
16315;DHT22;8266;52.150;4.768;2022-07-10T03:06:48;18.40;99.90
16315;DHT22;8266;52.150;4.768;2022-07-10T03:09:15;18.30;99.90
16315;DHT22;8266;52.150;4.768;2022-07-10T03:11:42;18.40;99.90
16315;DHT22;8266;52.150;4.768;2022-07-10T03:14:09;18.40;99.90
16315;DHT22;8266;52.150;4.768;2022-07-10T03:16:36;18.40;99.90
16315;DHT22;8266;52.150;4.768;2022-07-10T03:19:04;18.50;99.90
16315;DHT22;8266;52.150;4.768;2022-07-10T03:21:31;18.50;99.90
16315;DHT22;8266;52.150;4.768;2022-07-10T03:23:58;18.50;99.90
16315;DHT22;8266;52.150;4.768;2022-07-10T03:26:25;18.50;99.90
16315;DHT22;8266;52.150;4.768;2022-07-10T03:28:55;18.50;99.90
16315;DHT22;8266;52.150;4.768;2022-07-10T03:31:22;18.50;99.90
16315;DHT22;8266;52.150;4.768;2022-07-10T03:33:49;18.50;99.90
16315;DHT22;8266;52.150;4.768;2022-07-10T03:36:19;18.50;99.90
16315;DHT22;8266;52.150;4.768;2022-07-10T03:38:46;18.50;99.90
16315;DHT22;8266;52.150;4.768;2022-07-10T03:41:13;18.60;99.90
16315;DHT22;8266;52.150;4.768;2022-07-10T03:43:40;18.60;99.90
16315;DHT22;8266;52.150;4.768;2022-07-10T03:46:08;18.60;99.90
16315;DHT22;8266;52.150;4.768;2022-07-10T03:48:34;18.60;99.90
16315;DHT22;8266;52.150;4.768;2022-07-10T03:51:02;18.60;99.90
16315;DHT22;8266;52.150;4.768;2022-07-10T03:53:30;18.60;99.90
16315;DHT22;8266;52.150;4.768;2022-07-10T03:55:57;18.60;99.90
16315;DHT22;8266;52.150;4.768;2022-07-10T03:58:26;18.70;99.90
16315;DHT22;8266;52.150;4.768;2022-07-10T04:00:52;18.70;99.90
16315;DHT22;8266;52.150;4.768;2022-07-10T04:03:19;18.70;99.90
16315;DHT22;8266;52.150;4.768;2022-07-10T04:05:46;18.70;99.90
16315;DHT22;8266;52.150;4.768;2022-07-10T04:08:12;18.70;99.90
16315;DHT22;8266;52.150;4.768;2022-07-10T04:10:41;18.70;99.90
16315;DHT22;8266;52.150;4.768;2022-07-10T04:13:08;18.70;99.90
16315;DHT22;8266;52.150;4.768;2022-07-10T04:15:35;18.70;99.90
16315;DHT22;8266;52.150;4.768;2022-07-10T04:18:02;18.80;99.90
16315;DHT22;8266;52.150;4.768;2022-07-10T04:20:29;18.80;99.90
16315;DHT22;8266;52.150;4.768;2022-07-10T04:22:56;18.80;99.90
16315;DHT22;8266;52.150;4.768;2022-07-10T04:25:23;18.80;99.90
16315;DHT22;8266;52.150;4.768;2022-07-10T04:27:51;18.80;99.90
16315;DHT22;8266;52.150;4.768;2022-07-10T04:30:19;18.90;99.90
16315;DHT22;8266;52.150;4.768;2022-07-10T04:32:46;18.80;99.90
16315;DHT22;8266;52.150;4.768;2022-07-10T04:35:13;18.90;99.90
16315;DHT22;8266;52.150;4.768;2022-07-10T04:37:40;18.90;99.90
16315;DHT22;8266;52.150;4.768;2022-07-10T04:40:08;18.90;99.90
16315;DHT22;8266;52.150;4.768;2022-07-10T04:42:36;18.90;99.90
16315;DHT22;8266;52.150;4.768;2022-07-10T04:45:05;18.90;99.90
16315;DHT22;8266;52.150;4.768;2022-07-10T04:47:32;19.00;99.90
16315;DHT22;8266;52.150;4.768;2022-07-10T04:49:59;19.00;99.90
16315;DHT22;8266;52.150;4.768;2022-07-10T04:52:26;19.00;99.90
16315;DHT22;8266;52.150;4.768;2022-07-10T04:54:53;19.00;99.90
16315;DHT22;8266;52.150;4.768;2022-07-10T04:57:20;19.00;99.90
16315;DHT22;8266;52.150;4.768;2022-07-10T04:59:47;19.00;99.90
16315;DHT22;8266;52.150;4.768;2022-07-10T05:02:15;19.00;99.90
16315;DHT22;8266;52.150;4.768;2022-07-10T05:04:42;19.00;99.90
16315;DHT22;8266;52.150;4.768;2022-07-10T05:07:09;19.00;99.90
16315;DHT22;8266;52.150;4.768;2022-07-10T05:09:36;19.00;99.90
16315;DHT22;8266;52.150;4.768;2022-07-10T05:12:04;19.00;99.90
16315;DHT22;8266;52.150;4.768;2022-07-10T05:14:31;19.10;99.90
16315;DHT22;8266;52.150;4.768;2022-07-10T05:16:58;19.10;99.90
16315;DHT22;8266;52.150;4.768;2022-07-10T05:19:27;19.10;99.90
16315;DHT22;8266;52.150;4.768;2022-07-10T05:21:54;19.10;99.90
16315;DHT22;8266;52.150;4.768;2022-07-10T05:24:22;19.10;99.90
16315;DHT22;8266;52.150;4.768;2022-07-10T05:26:49;19.20;99.90
16315;DHT22;8266;52.150;4.768;2022-07-10T05:29:16;19.20;99.90
16315;DHT22;8266;52.150;4.768;2022-07-10T05:31:43;19.20;99.90
16315;DHT22;8266;52.150;4.768;2022-07-10T05:34:11;19.30;99.90
16315;DHT22;8266;52.150;4.768;2022-07-10T05:36:39;19.20;99.90
16315;DHT22;8266;52.150;4.768;2022-07-10T05:39:06;19.30;99.90
16315;DHT22;8266;52.150;4.768;2022-07-10T05:41:33;19.30;99.90
16315;DHT22;8266;52.150;4.768;2022-07-10T05:44:00;19.30;99.90
16315;DHT22;8266;52.150;4.768;2022-07-10T05:46:27;19.30;99.90
16315;DHT22;8266;52.150;4.768;2022-07-10T05:48:54;19.40;99.90
16315;DHT22;8266;52.150;4.768;2022-07-10T05:51:21;19.40;99.90
16315;DHT22;8266;52.150;4.768;2022-07-10T05:53:50;19.40;99.90
16315;DHT22;8266;52.150;4.768;2022-07-10T05:56:17;19.50;99.90
16315;DHT22;8266;52.150;4.768;2022-07-10T05:58:43;19.60;99.90
16315;DHT22;8266;52.150;4.768;2022-07-10T06:01:10;19.60;99.90
16315;DHT22;8266;52.150;4.768;2022-07-10T06:03:37;19.60;99.90
16315;DHT22;8266;52.150;4.768;2022-07-10T06:06:05;19.60;99.90
16315;DHT22;8266;52.150;4.768;2022-07-10T06:08:32;19.70;99.90
16315;DHT22;8266;52.150;4.768;2022-07-10T06:11:00;19.80;99.90
16315;DHT22;8266;52.150;4.768;2022-07-10T06:13:27;19.80;99.90
16315;DHT22;8266;52.150;4.768;2022-07-10T06:15:54;19.80;99.90
16315;DHT22;8266;52.150;4.768;2022-07-10T06:18:21;19.90;99.90
16315;DHT22;8266;52.150;4.768;2022-07-10T06:20:48;19.90;99.90
16315;DHT22;8266;52.150;4.768;2022-07-10T06:23:15;19.90;99.90
16315;DHT22;8266;52.150;4.768;2022-07-10T06:25:42;20.00;99.90
16315;DHT22;8266;52.150;4.768;2022-07-10T06:28:10;20.00;99.90
16315;DHT22;8266;52.150;4.768;2022-07-10T06:30:37;20.10;99.90
16315;DHT22;8266;52.150;4.768;2022-07-10T06:33:04;20.10;99.90
16315;DHT22;8266;52.150;4.768;2022-07-10T06:35:31;20.20;99.90
16315;DHT22;8266;52.150;4.768;2022-07-10T06:37:58;20.20;99.90
16315;DHT22;8266;52.150;4.768;2022-07-10T06:40:25;20.20;99.90
16315;DHT22;8266;52.150;4.768;2022-07-10T06:42:52;20.20;99.90
16315;DHT22;8266;52.150;4.768;2022-07-10T06:45:21;20.30;99.90
16315;DHT22;8266;52.150;4.768;2022-07-10T06:47:48;20.30;99.90
16315;DHT22;8266;52.150;4.768;2022-07-10T06:50:24;20.30;99.90
16315;DHT22;8266;52.150;4.768;2022-07-10T06:52:52;20.30;99.90
16315;DHT22;8266;52.150;4.768;2022-07-10T06:55:20;20.30;99.90
16315;DHT22;8266;52.150;4.768;2022-07-10T06:57:47;20.30;99.90
16315;DHT22;8266;52.150;4.768;2022-07-10T07:00:14;20.30;99.90
16315;DHT22;8266;52.150;4.768;2022-07-10T07:02:43;20.40;99.90
16315;DHT22;8266;52.150;4.768;2022-07-10T07:05:10;20.40;99.90
16315;DHT22;8266;52.150;4.768;2022-07-10T07:07:37;20.40;99.90
16315;DHT22;8266;52.150;4.768;2022-07-10T07:10:05;20.50;99.90
16315;DHT22;8266;52.150;4.768;2022-07-10T07:12:33;20.60;99.90
16315;DHT22;8266;52.150;4.768;2022-07-10T07:15:00;20.70;99.90
16315;DHT22;8266;52.150;4.768;2022-07-10T07:17:27;20.70;99.90
16315;DHT22;8266;52.150;4.768;2022-07-10T07:20:02;20.80;99.90
16315;DHT22;8266;52.150;4.768;2022-07-10T07:22:47;20.80;99.90
16315;DHT22;8266;52.150;4.768;2022-07-10T07:25:31;20.90;99.90
16315;DHT22;8266;52.150;4.768;2022-07-10T07:27:58;20.90;99.90
16315;DHT22;8266;52.150;4.768;2022-07-10T07:30:25;21.00;99.90
16315;DHT22;8266;52.150;4.768;2022-07-10T07:32:52;21.00;99.90
16315;DHT22;8266;52.150;4.768;2022-07-10T07:35:20;21.00;99.90
16315;DHT22;8266;52.150;4.768;2022-07-10T07:37:49;21.00;99.90
16315;DHT22;8266;52.150;4.768;2022-07-10T07:40:18;21.00;99.90
16315;DHT22;8266;52.150;4.768;2022-07-10T07:42:47;21.00;99.90
16315;DHT22;8266;52.150;4.768;2022-07-10T07:45:13;21.00;99.90
16315;DHT22;8266;52.150;4.768;2022-07-10T07:47:44;21.00;99.90
16315;DHT22;8266;52.150;4.768;2022-07-10T07:50:12;21.00;99.90
16315;DHT22;8266;52.150;4.768;2022-07-10T07:52:41;21.00;99.90
16315;DHT22;8266;52.150;4.768;2022-07-10T07:55:09;21.00;99.90
16315;DHT22;8266;52.150;4.768;2022-07-10T07:57:36;21.00;99.90
16315;DHT22;8266;52.150;4.768;2022-07-10T08:00:04;21.10;99.90
16315;DHT22;8266;52.150;4.768;2022-07-10T08:02:32;21.10;99.90
16315;DHT22;8266;52.150;4.768;2022-07-10T08:04:59;21.10;99.90
16315;DHT22;8266;52.150;4.768;2022-07-10T08:07:33;21.10;99.90
16315;DHT22;8266;52.150;4.768;2022-07-10T08:10:02;21.10;99.90
16315;DHT22;8266;52.150;4.768;2022-07-10T08:12:29;21.10;99.90
16315;DHT22;8266;52.150;4.768;2022-07-10T08:14:56;21.20;99.90
16315;DHT22;8266;52.150;4.768;2022-07-10T08:17:24;21.30;99.90
16315;DHT22;8266;52.150;4.768;2022-07-10T08:19:51;21.30;99.90
16315;DHT22;8266;52.150;4.768;2022-07-10T08:22:22;21.40;99.90
16315;DHT22;8266;52.150;4.768;2022-07-10T08:24:49;21.50;99.90
16315;DHT22;8266;52.150;4.768;2022-07-10T08:27:17;21.60;99.90
16315;DHT22;8266;52.150;4.768;2022-07-10T08:29:44;21.70;99.90
16315;DHT22;8266;52.150;4.768;2022-07-10T08:32:11;21.70;99.90
16315;DHT22;8266;52.150;4.768;2022-07-10T08:34:38;21.80;99.90
16315;DHT22;8266;52.150;4.768;2022-07-10T08:37:07;21.90;99.90
16315;DHT22;8266;52.150;4.768;2022-07-10T08:39:34;22.00;99.90
16315;DHT22;8266;52.150;4.768;2022-07-10T08:42:02;22.10;99.90
16315;DHT22;8266;52.150;4.768;2022-07-10T08:44:33;22.20;99.90
16315;DHT22;8266;52.150;4.768;2022-07-10T08:47:02;22.30;99.90
16315;DHT22;8266;52.150;4.768;2022-07-10T08:49:30;22.40;99.90
16315;DHT22;8266;52.150;4.768;2022-07-10T08:51:58;22.50;99.90
16315;DHT22;8266;52.150;4.768;2022-07-10T08:54:28;22.60;99.90
16315;DHT22;8266;52.150;4.768;2022-07-10T08:56:56;22.60;99.90
16315;DHT22;8266;52.150;4.768;2022-07-10T08:59:24;22.80;99.90
16315;DHT22;8266;52.150;4.768;2022-07-10T09:01:53;22.90;99.90
16315;DHT22;8266;52.150;4.768;2022-07-10T09:04:21;23.00;99.90
16315;DHT22;8266;52.150;4.768;2022-07-10T09:06:48;23.20;99.90
16315;DHT22;8266;52.150;4.768;2022-07-10T09:09:15;23.20;99.90
16315;DHT22;8266;52.150;4.768;2022-07-10T09:11:42;23.30;99.90
16315;DHT22;8266;52.150;4.768;2022-07-10T09:14:10;23.40;99.90
16315;DHT22;8266;52.150;4.768;2022-07-10T09:16:39;23.50;99.90
16315;DHT22;8266;52.150;4.768;2022-07-10T09:19:18;23.50;99.90
16315;DHT22;8266;52.150;4.768;2022-07-10T09:21:47;23.70;99.90
16315;DHT22;8266;52.150;4.768;2022-07-10T09:24:15;23.80;99.90
16315;DHT22;8266;52.150;4.768;2022-07-10T09:26:57;24.00;99.90
16315;DHT22;8266;52.150;4.768;2022-07-10T09:29:24;24.10;99.90
16315;DHT22;8266;52.150;4.768;2022-07-10T09:31:55;24.20;99.90
16315;DHT22;8266;52.150;4.768;2022-07-10T09:34:39;24.20;99.90
16315;DHT22;8266;52.150;4.768;2022-07-10T09:37:21;24.20;99.90
16315;DHT22;8266;52.150;4.768;2022-07-10T09:39:53;24.30;99.90
16315;DHT22;8266;52.150;4.768;2022-07-10T09:42:29;24.30;99.90
16315;DHT22;8266;52.150;4.768;2022-07-10T09:45:19;24.40;99.90
16315;DHT22;8266;52.150;4.768;2022-07-10T09:47:55;24.40;99.90
16315;DHT22;8266;52.150;4.768;2022-07-10T09:50:25;24.50;99.90
16315;DHT22;8266;52.150;4.768;2022-07-10T09:52:54;24.60;99.90
16315;DHT22;8266;52.150;4.768;2022-07-10T09:55:22;24.70;99.90
16315;DHT22;8266;52.150;4.768;2022-07-10T09:57:55;24.80;99.90
16315;DHT22;8266;52.150;4.768;2022-07-10T10:00:24;25.00;99.90
16315;DHT22;8266;52.150;4.768;2022-07-10T10:02:56;25.10;99.90
16315;DHT22;8266;52.150;4.768;2022-07-10T10:05:34;25.20;99.90
16315;DHT22;8266;52.150;4.768;2022-07-10T10:08:07;25.40;99.90
16315;DHT22;8266;52.150;4.768;2022-07-10T10:10:36;25.60;99.90
16315;DHT22;8266;52.150;4.768;2022-07-10T10:13:08;25.80;99.90
16315;DHT22;8266;52.150;4.768;2022-07-10T10:15:37;25.80;99.50
16315;DHT22;8266;52.150;4.768;2022-07-10T10:18:05;26.00;99.80
16315;DHT22;8266;52.150;4.768;2022-07-10T10:20:34;26.10;99.40
16315;DHT22;8266;52.150;4.768;2022-07-10T10:23:10;26.20;99.20
16315;DHT22;8266;52.150;4.768;2022-07-10T10:25:37;26.20;98.30
16315;DHT22;8266;52.150;4.768;2022-07-10T10:28:06;26.20;98.50
16315;DHT22;8266;52.150;4.768;2022-07-10T10:30:36;26.20;98.40
16315;DHT22;8266;52.150;4.768;2022-07-10T10:36:03;26.20;97.70
16315;DHT22;8266;52.150;4.768;2022-07-10T10:38:59;26.20;97.40
16315;DHT22;8266;52.150;4.768;2022-07-10T10:41:28;26.20;97.40
16315;DHT22;8266;52.150;4.768;2022-07-10T10:44:19;26.20;97.80
16315;DHT22;8266;52.150;4.768;2022-07-10T10:46:58;26.20;97.10
16315;DHT22;8266;52.150;4.768;2022-07-10T10:49:27;26.20;96.60
16315;DHT22;8266;52.150;4.768;2022-07-10T10:52:16;26.20;96.40
16315;DHT22;8266;52.150;4.768;2022-07-10T10:55:06;26.10;95.70
16315;DHT22;8266;52.150;4.768;2022-07-10T10:57:41;26.20;95.80
16315;DHT22;8266;52.150;4.768;2022-07-10T11:00:33;26.20;95.90
16315;DHT22;8266;52.150;4.768;2022-07-10T11:03:14;26.20;95.00
16315;DHT22;8266;52.150;4.768;2022-07-10T11:05:43;26.30;95.50
16315;DHT22;8266;52.150;4.768;2022-07-10T11:08:12;26.30;95.20
16315;DHT22;8266;52.150;4.768;2022-07-10T11:10:41;26.40;94.90
16315;DHT22;8266;52.150;4.768;2022-07-10T11:13:09;26.50;94.90
16315;DHT22;8266;52.150;4.768;2022-07-10T11:15:37;26.60;94.50
16315;DHT22;8266;52.150;4.768;2022-07-10T11:18:06;26.70;94.10
16315;DHT22;8266;52.150;4.768;2022-07-10T11:20:34;26.80;94.00
16315;DHT22;8266;52.150;4.768;2022-07-10T11:26:05;26.90;93.50
16315;DHT22;8266;52.150;4.768;2022-07-10T11:28:46;26.90;92.40
16315;DHT22;8266;52.150;4.768;2022-07-10T11:31:14;26.90;92.30
16315;DHT22;8266;52.150;4.768;2022-07-10T11:33:43;26.90;92.20
16315;DHT22;8266;52.150;4.768;2022-07-10T11:36:12;26.90;91.90
16315;DHT22;8266;52.150;4.768;2022-07-10T11:38:40;26.90;91.20
16315;DHT22;8266;52.150;4.768;2022-07-10T11:41:15;26.80;91.10
16315;DHT22;8266;52.150;4.768;2022-07-10T11:43:49;26.80;91.00
16315;DHT22;8266;52.150;4.768;2022-07-10T11:46:16;26.80;91.20
16315;DHT22;8266;52.150;4.768;2022-07-10T11:48:44;26.80;91.40
16315;DHT22;8266;52.150;4.768;2022-07-10T11:51:19;26.80;91.60
16315;DHT22;8266;52.150;4.768;2022-07-10T11:53:54;26.90;91.60
16315;DHT22;8266;52.150;4.768;2022-07-10T11:56:23;26.90;91.40
16315;DHT22;8266;52.150;4.768;2022-07-10T11:58:55;27.00;90.80
16315;DHT22;8266;52.150;4.768;2022-07-10T12:01:22;27.10;90.60
16315;DHT22;8266;52.150;4.768;2022-07-10T12:04:00;27.20;90.10
16315;DHT22;8266;52.150;4.768;2022-07-10T12:06:28;27.20;90.10
16315;DHT22;8266;52.150;4.768;2022-07-10T12:08:56;27.20;90.50
16315;DHT22;8266;52.150;4.768;2022-07-10T12:11:29;27.30;90.50
16315;DHT22;8266;52.150;4.768;2022-07-10T12:14:09;27.30;91.30
16315;DHT22;8266;52.150;4.768;2022-07-10T12:16:37;27.30;90.80
16315;DHT22;8266;52.150;4.768;2022-07-10T12:19:06;27.40;90.80
16315;DHT22;8266;52.150;4.768;2022-07-10T12:21:33;27.50;91.10
16315;DHT22;8266;52.150;4.768;2022-07-10T12:24:01;27.60;91.00
16315;DHT22;8266;52.150;4.768;2022-07-10T12:26:33;27.60;91.20
16315;DHT22;8266;52.150;4.768;2022-07-10T12:29:00;27.70;91.20
16315;DHT22;8266;52.150;4.768;2022-07-10T12:31:29;27.80;91.10
16315;DHT22;8266;52.150;4.768;2022-07-10T12:33:58;27.80;91.10
16315;DHT22;8266;52.150;4.768;2022-07-10T12:36:41;27.80;91.10
16315;DHT22;8266;52.150;4.768;2022-07-10T12:39:09;27.80;91.10
16315;DHT22;8266;52.150;4.768;2022-07-10T12:41:56;27.90;91.10
16315;DHT22;8266;52.150;4.768;2022-07-10T12:44:34;27.80;91.50
16315;DHT22;8266;52.150;4.768;2022-07-10T12:47:03;27.80;91.00
16315;DHT22;8266;52.150;4.768;2022-07-10T12:49:48;27.80;91.00
16315;DHT22;8266;52.150;4.768;2022-07-10T12:52:21;27.80;91.00
16315;DHT22;8266;52.150;4.768;2022-07-10T12:54:48;27.80;91.10
16315;DHT22;8266;52.150;4.768;2022-07-10T12:57:17;27.80;91.40
16315;DHT22;8266;52.150;4.768;2022-07-10T12:59:44;27.80;91.10
16315;DHT22;8266;52.150;4.768;2022-07-10T13:02:19;27.80;90.60
16315;DHT22;8266;52.150;4.768;2022-07-10T13:04:52;27.80;91.00
16315;DHT22;8266;52.150;4.768;2022-07-10T13:07:20;27.80;91.00
16315;DHT22;8266;52.150;4.768;2022-07-10T13:09:55;27.80;91.10
16315;DHT22;8266;52.150;4.768;2022-07-10T13:12:23;27.80;91.10
16315;DHT22;8266;52.150;4.768;2022-07-10T13:14:50;27.80;91.50
16315;DHT22;8266;52.150;4.768;2022-07-10T13:17:17;27.80;91.30
16315;DHT22;8266;52.150;4.768;2022-07-10T13:19:44;27.80;91.50
16315;DHT22;8266;52.150;4.768;2022-07-10T13:22:12;27.80;92.00
16315;DHT22;8266;52.150;4.768;2022-07-10T13:24:39;27.80;92.20
16315;DHT22;8266;52.150;4.768;2022-07-10T13:27:06;27.80;92.40
16315;DHT22;8266;52.150;4.768;2022-07-10T13:29:35;27.80;92.00
16315;DHT22;8266;52.150;4.768;2022-07-10T13:32:02;27.90;92.40
16315;DHT22;8266;52.150;4.768;2022-07-10T13:34:29;27.80;92.40
16315;DHT22;8266;52.150;4.768;2022-07-10T13:36:56;27.80;92.30
16315;DHT22;8266;52.150;4.768;2022-07-10T13:39:24;27.80;92.00
16315;DHT22;8266;52.150;4.768;2022-07-10T13:41:51;27.80;92.10
16315;DHT22;8266;52.150;4.768;2022-07-10T13:44:18;27.80;92.10
16315;DHT22;8266;52.150;4.768;2022-07-10T13:46:47;27.70;92.00
16315;DHT22;8266;52.150;4.768;2022-07-10T13:49:14;27.70;92.10
16315;DHT22;8266;52.150;4.768;2022-07-10T13:51:41;27.70;91.80
16315;DHT22;8266;52.150;4.768;2022-07-10T13:54:08;27.70;92.30
16315;DHT22;8266;52.150;4.768;2022-07-10T13:56:35;27.70;92.40
16315;DHT22;8266;52.150;4.768;2022-07-10T13:59:02;27.80;92.40
16315;DHT22;8266;52.150;4.768;2022-07-10T14:01:29;27.80;92.30
16315;DHT22;8266;52.150;4.768;2022-07-10T14:03:57;27.70;92.10
16315;DHT22;8266;52.150;4.768;2022-07-10T14:06:24;27.70;92.00
16315;DHT22;8266;52.150;4.768;2022-07-10T14:08:51;27.70;92.10
16315;DHT22;8266;52.150;4.768;2022-07-10T14:11:18;27.60;92.30
16315;DHT22;8266;52.150;4.768;2022-07-10T14:13:45;27.60;92.40
16315;DHT22;8266;52.150;4.768;2022-07-10T14:16:13;27.60;92.80
16315;DHT22;8266;52.150;4.768;2022-07-10T14:18:40;27.60;93.10
16315;DHT22;8266;52.150;4.768;2022-07-10T14:21:11;27.60;93.20
16315;DHT22;8266;52.150;4.768;2022-07-10T14:23:40;27.60;92.70
16315;DHT22;8266;52.150;4.768;2022-07-10T14:26:09;27.70;92.70
16315;DHT22;8266;52.150;4.768;2022-07-10T14:28:37;27.70;92.80
16315;DHT22;8266;52.150;4.768;2022-07-10T14:31:06;27.60;92.80
16315;DHT22;8266;52.150;4.768;2022-07-10T14:33:34;27.60;92.70
16315;DHT22;8266;52.150;4.768;2022-07-10T14:36:03;27.60;92.90
16315;DHT22;8266;52.150;4.768;2022-07-10T14:38:32;27.60;93.10
16315;DHT22;8266;52.150;4.768;2022-07-10T14:40:59;27.60;93.10
16315;DHT22;8266;52.150;4.768;2022-07-10T14:43:26;27.60;93.30
16315;DHT22;8266;52.150;4.768;2022-07-10T14:45:54;27.60;93.50
16315;DHT22;8266;52.150;4.768;2022-07-10T14:48:21;27.60;93.10
16315;DHT22;8266;52.150;4.768;2022-07-10T14:50:48;27.70;93.40
16315;DHT22;8266;52.150;4.768;2022-07-10T14:53:15;27.60;93.20
16315;DHT22;8266;52.150;4.768;2022-07-10T14:55:43;27.60;93.50
16315;DHT22;8266;52.150;4.768;2022-07-10T14:58:10;27.70;93.50
16315;DHT22;8266;52.150;4.768;2022-07-10T15:00:37;27.70;93.10
16315;DHT22;8266;52.150;4.768;2022-07-10T15:03:04;27.60;93.30
16315;DHT22;8266;52.150;4.768;2022-07-10T15:05:31;27.60;93.30
16315;DHT22;8266;52.150;4.768;2022-07-10T15:07:59;27.60;93.20
16315;DHT22;8266;52.150;4.768;2022-07-10T15:10:26;27.50;93.70
16315;DHT22;8266;52.150;4.768;2022-07-10T15:12:55;27.50;93.60
16315;DHT22;8266;52.150;4.768;2022-07-10T15:15:22;27.50;93.50
16315;DHT22;8266;52.150;4.768;2022-07-10T15:17:49;27.50;93.70
16315;DHT22;8266;52.150;4.768;2022-07-10T15:20:16;27.50;93.70
16315;DHT22;8266;52.150;4.768;2022-07-10T15:22:44;27.50;93.90
16315;DHT22;8266;52.150;4.768;2022-07-10T15:25:14;27.50;93.70
16315;DHT22;8266;52.150;4.768;2022-07-10T15:27:41;27.50;94.10
16315;DHT22;8266;52.150;4.768;2022-07-10T15:30:10;27.50;94.20
16315;DHT22;8266;52.150;4.768;2022-07-10T15:32:38;27.50;94.20
16315;DHT22;8266;52.150;4.768;2022-07-10T15:35:06;27.40;94.00
16315;DHT22;8266;52.150;4.768;2022-07-10T15:37:33;27.40;94.30
16315;DHT22;8266;52.150;4.768;2022-07-10T15:40:00;27.40;94.10
16315;DHT22;8266;52.150;4.768;2022-07-10T15:42:28;27.40;94.20
16315;DHT22;8266;52.150;4.768;2022-07-10T15:44:55;27.40;94.40
16315;DHT22;8266;52.150;4.768;2022-07-10T15:47:23;27.40;94.40
16315;DHT22;8266;52.150;4.768;2022-07-10T15:49:51;27.30;94.20
16315;DHT22;8266;52.150;4.768;2022-07-10T15:52:18;27.30;94.20
16315;DHT22;8266;52.150;4.768;2022-07-10T15:54:45;27.30;94.40
16315;DHT22;8266;52.150;4.768;2022-07-10T15:57:12;27.20;94.50
16315;DHT22;8266;52.150;4.768;2022-07-10T15:59:39;27.20;94.50
16315;DHT22;8266;52.150;4.768;2022-07-10T16:02:08;27.10;94.50